Terminal Aerodrome Forecast
Issued by NWS

Home | Current Version | Previous Version | Text Only | Print | Product List | Glossary On
Versions: 1 2 3 4 5 6 7 8 9 10 11 12 13 14 15 16 17 18 19
660
FTUS41 KGYX 231729
TAFLEB
TAF
KLEB 231729Z 2318/2418 30010G18KT P6SM SKC
     FM240000 VRB03KT P6SM SCT250
     FM240500 00000KT P6SM SCT120 BKN200
     FM241200 18006KT P6SM SCT030 BKN060 OVC080
     FM241500 19010KT P6SM -SHSN BKN025 OVC050=

USA.gov is the U.S. government's official web portal to all federal, state and local government web resources and services.